Huvudsida
METAR-TAF:

METAR-TAF

Flygplatser :

Nakhon Ratchasima, Thailand

latitud: 14-56-58N, longitud: 102-18-45E, höjd: 233 m

Aktuellt väderrapport

Denna rapport gjordes för 7 timmar och 17 minuter sedan, klockan 14:00 UTC
Vind 10 kt från ost, varierande mellan ost/nordost och syd/sydost
Temperatur 29°C
Fuktighet 62%
Tryck 1012 hPa
Sikt 10 km eller mer
Inga moln under 1 500 m eller inga cumulonimbus

METAR: VTUQ 221400Z 10010KT 060V150 CAVOK 29/21 Q1012 NOSIG

Tid: 04:17 (21:17 UTC)

Väderprognos

Denna rapport gjordes för 4 timmar och 17 minuter sedan, klockan 17:00 UTC
Prognos gäller från 22 kl. 18 UTC till 23 kl. 18 UTC
Vind 5 kt från syd/sydost
Sikt: 8000 m
Få moln på en höjd av 3500 ft

TAF: VTUQ 221700Z 2218/2318 15005KT 8000 FEW035

Aktuella väderrapporter och prognoser från 4000 flygplatser (METAR- och TAF-rapporter).

De tillgängliga stationerna syns som gula och röda prickar på kartan.

För musen över prickarna för att se namnen på stationerna.

Klicka sedan för att få väderrapporter och prognoser.

För att ändra kartan: Klicka på de gröna knapparna med ett svart kors på för att zooma in; den gröna knappen med ett streck på för att zooma ut; eller på de gröna pilarna för angränsande kartor.


METAR-TAF: